Time;durP1;ratioP1;P1;durP2;ratioP2;P2;SDS_P1;SDS_P2;PMS_P1;PMS_P2;Temp;Humidity;BMP_temperature;BMP_pressure;BME280_temperature;BME280_humidity;BME280_pressure;Samples;Min_cycle;Max_cycle;Signal;HPM_P1;HPM_P2
2021/07/02 00:01:48;;;;;;;5.75;3.85;;;;;;;;;;5081073;28;20051;-53
2021/07/02 00:04:13;;;;;;;4.38;3.45;;;;;;;;;;5078233;28;20385;-49
2021/07/02 00:06:39;;;;;;;3.13;2.78;;;;;;;;;;5079912;28;20028;-53
2021/07/02 00:09:04;;;;;;;4.97;3.20;;;;;;;;;;5091574;28;20070;-49
2021/07/02 00:11:29;;;;;;;3.08;2.75;;;;;;;;;;5082061;28;20067;-53
2021/07/02 00:13:54;;;;;;;5.03;3.05;;;;;;;;;;5084989;28;20088;-52
2021/07/02 00:16:19;;;;;;;4.38;3.20;;;;;;;;;;5091771;28;20027;-53
2021/07/02 00:18:45;;;;;;;3.92;2.60;;;;;;;;;;5086573;28;20012;-51
2021/07/02 00:21:10;;;;;;;3.20;2.90;;;;;;;;;;5091885;28;20468;-51
2021/07/02 00:23:35;;;;;;;4.32;2.70;;;;;;;;;;5093630;28;20471;-53
2021/07/02 00:26:00;;;;;;;4.68;3.58;;;;;;;;;;5087423;28;20478;-53
2021/07/02 00:28:26;;;;;;;2.28;1.73;;;;;;;;;;5076829;28;20024;-51
2021/07/02 00:30:51;;;;;;;3.75;2.80;;;;;;;;;;5075749;28;20031;-53
2021/07/02 00:33:16;;;;;;;3.75;3.10;;;;;;;;;;5083307;28;20028;-52
2021/07/02 00:35:42;;;;;;;4.18;3.22;;;;;;;;;;5088999;28;20032;-50
2021/07/02 00:38:08;;;;;;;3.95;3.03;;;;;;;;;;5090318;28;20035;-52
2021/07/02 00:40:33;;;;;;;6.00;2.95;;;;;;;;;;5092847;28;20012;-51
2021/07/02 00:42:58;;;;;;;4.53;3.13;;;;;;;;;;5083978;28;20024;-48
2021/07/02 00:45:23;;;;;;;5.88;3.83;;;;;;;;;;5078686;28;20035;-50
2021/07/02 00:47:49;;;;;;;2.75;2.47;;;;;;;;;;5074664;28;20028;-54
2021/07/02 00:50:14;;;;;;;5.43;3.00;;;;;;;;;;5081205;28;20016;-50
2021/07/02 00:52:39;;;;;;;5.15;2.80;;;;;;;;;;5080046;28;20016;-50
2021/07/02 00:55:05;;;;;;;4.30;3.00;;;;;;;;;;5090562;28;20034;-52
2021/07/02 00:57:30;;;;;;;4.15;3.03;;;;;;;;;;5093105;28;20028;-53
2021/07/02 00:59:56;;;;;;;2.72;2.15;;;;;;;;;;5080059;28;20062;-55
2021/07/02 01:02:21;;;;;;;4.45;2.95;;;;;;;;;;5077099;28;20039;-49
2021/07/02 01:04:46;;;;;;;3.40;2.70;;;;;;;;;;5087833;28;20020;-52
2021/07/02 01:07:12;;;;;;;3.28;2.97;;;;;;;;;;5075722;28;20032;-54
2021/07/02 01:09:38;;;;;;;3.90;2.30;;;;;;;;;;5082373;28;20016;-54
2021/07/02 01:12:05;;;;;;;2.95;2.35;;;;;;;;;;5076546;28;20021;-51
2021/07/02 01:14:30;;;;;;;3.35;2.50;;;;;;;;;;5081805;28;20095;-53
2021/07/02 01:16:56;;;;;;;3.22;2.88;;;;;;;;;;5090880;28;20099;-53
2021/07/02 01:19:21;;;;;;;3.90;2.47;;;;;;;;;;5091017;28;20024;-50
2021/07/02 01:21:47;;;;;;;4.90;2.70;;;;;;;;;;5091834;28;20023;-51
2021/07/02 01:24:12;;;;;;;4.65;2.78;;;;;;;;;;5089004;28;20024;-53
2021/07/02 01:26:37;;;;;;;4.65;2.88;;;;;;;;;;5088339;28;20073;-53
2021/07/02 01:29:03;;;;;;;4.05;2.67;;;;;;;;;;5088230;28;20050;-52
2021/07/02 01:31:28;;;;;;;2.97;2.67;;;;;;;;;;5078283;28;20069;-54
2021/07/02 01:33:53;;;;;;;4.85;2.65;;;;;;;;;;5078303;28;20025;-55
2021/07/02 01:36:20;;;;;;;4.55;3.15;;;;;;;;;;5092376;28;20024;-50
2021/07/02 01:38:45;;;;;;;5.85;3.45;;;;;;;;;;5081812;28;20082;-49
2021/07/02 01:41:10;;;;;;;5.53;3.05;;;;;;;;;;5091078;28;20054;-53
2021/07/02 01:43:36;;;;;;;3.90;3.50;;;;;;;;;;5077261;28;20033;-51
2021/07/02 01:46:01;;;;;;;3.67;3.17;;;;;;;;;;5079515;28;20023;-51
2021/07/02 01:48:27;;;;;;;3.95;2.80;;;;;;;;;;5084603;28;20020;-51
2021/07/02 01:50:52;;;;;;;3.53;2.97;;;;;;;;;;5079980;28;20435;-48
2021/07/02 01:53:17;;;;;;;4.75;3.00;;;;;;;;;;5081157;28;20042;-49
2021/07/02 01:55:42;;;;;;;3.70;2.95;;;;;;;;;;5085474;28;20017;-51
2021/07/02 01:58:07;;;;;;;5.07;3.50;;;;;;;;;;5076174;28;20020;-53
2021/07/02 02:00:33;;;;;;;6.20;3.95;;;;;;;;;;5078428;28;20027;-50
2021/07/02 02:02:58;;;;;;;5.72;3.67;;;;;;;;;;5088156;28;20046;-50
2021/07/02 02:05:23;;;;;;;5.50;3.60;;;;;;;;;;5082707;28;20062;-51
2021/07/02 02:07:49;;;;;;;4.60;3.33;;;;;;;;;;5092765;28;20455;-51
2021/07/02 02:10:14;;;;;;;6.03;3.90;;;;;;;;;;5089523;28;20039;-52
2021/07/02 02:12:39;;;;;;;5.22;3.42;;;;;;;;;;5086932;28;20008;-52
2021/07/02 02:15:06;;;;;;;5.47;3.70;;;;;;;;;;5088752;28;20106;-51
2021/07/02 02:17:31;;;;;;;5.15;3.63;;;;;;;;;;5078253;28;20032;-52
2021/07/02 02:19:56;;;;;;;4.85;3.78;;;;;;;;;;5085677;28;20024;-52
2021/07/02 02:22:22;;;;;;;6.20;4.13;;;;;;;;;;5086065;28;20020;-52
2021/07/02 02:24:47;;;;;;;4.68;3.60;;;;;;;;;;5090493;28;20455;-54
2021/07/02 02:27:12;;;;;;;6.68;4.07;;;;;;;;;;5076802;28;20375;-53
2021/07/02 02:29:37;;;;;;;5.03;3.63;;;;;;;;;;5080601;28;20020;-50
2021/07/02 02:32:03;;;;;;;5.50;3.67;;;;;;;;;;5087044;28;20024;-53
2021/07/02 02:34:28;;;;;;;5.43;3.70;;;;;;;;;;5075686;28;20070;-53
2021/07/02 02:36:53;;;;;;;6.60;4.07;;;;;;;;;;5089360;28;20020;-48
2021/07/02 02:39:18;;;;;;;5.28;3.42;;;;;;;;;;5082851;28;20024;-52
2021/07/02 02:41:44;;;;;;;4.72;3.40;;;;;;;;;;5080828;28;20028;-53
2021/07/02 02:44:09;;;;;;;4.80;3.78;;;;;;;;;;5086660;28;20099;-51
2021/07/02 02:46:35;;;;;;;6.28;3.63;;;;;;;;;;5088945;28;20057;-51
2021/07/02 02:49:00;;;;;;;4.88;3.58;;;;;;;;;;5084094;28;20056;-50
2021/07/02 02:51:25;;;;;;;4.60;3.13;;;;;;;;;;5074386;28;20036;-53
2021/07/02 02:53:51;;;;;;;6.65;4.18;;;;;;;;;;5073012;28;20039;-52
2021/07/02 02:56:16;;;;;;;5.50;4.32;;;;;;;;;;5083286;28;20053;-50
2021/07/02 02:58:41;;;;;;;4.65;3.67;;;;;;;;;;5074889;28;20046;-52
2021/07/02 03:01:06;;;;;;;5.50;4.20;;;;;;;;;;5073251;28;20039;-53
2021/07/02 03:03:31;;;;;;;5.05;3.53;;;;;;;;;;5083802;28;20048;-49
2021/07/02 03:05:57;;;;;;;5.35;3.63;;;;;;;;;;5085913;28;20054;-51
2021/07/02 03:08:22;;;;;;;4.45;3.17;;;;;;;;;;5089849;28;20020;-53
2021/07/02 03:10:47;;;;;;;3.58;2.67;;;;;;;;;;5074711;28;20031;-51
2021/07/02 03:13:12;;;;;;;6.00;3.20;;;;;;;;;;5074324;28;20024;-53
2021/07/02 03:15:38;;;;;;;4.75;3.10;;;;;;;;;;5073026;28;20062;-53
2021/07/02 03:18:03;;;;;;;5.30;3.53;;;;;;;;;;5090110;28;20463;-51
2021/07/02 03:20:28;;;;;;;4.25;2.92;;;;;;;;;;5089018;28;20103;-51
2021/07/02 03:22:53;;;;;;;5.95;3.67;;;;;;;;;;5073231;28;20028;-54
2021/07/02 03:25:19;;;;;;;3.90;3.50;;;;;;;;;;5088878;28;20047;-53
2021/07/02 03:27:44;;;;;;;4.20;3.47;;;;;;;;;;5072697;28;20021;-51
2021/07/02 03:30:10;;;;;;;3.33;1.85;;;;;;;;;;5089584;28;20016;-52
2021/07/02 03:32:36;;;;;;;4.90;3.05;;;;;;;;;;5084028;28;20012;-54
2021/07/02 03:35:01;;;;;;;4.88;3.20;;;;;;;;;;5081241;28;20039;-52
2021/07/02 03:37:26;;;;;;;5.30;3.75;;;;;;;;;;5072307;28;20028;-50
2021/07/02 03:39:52;;;;;;;5.20;3.45;;;;;;;;;;5085212;28;20031;-50
2021/07/02 03:42:17;;;;;;;4.90;3.50;;;;;;;;;;5075075;28;20028;-52
2021/07/02 03:44:42;;;;;;;3.78;2.85;;;;;;;;;;5086993;28;20020;-52
2021/07/02 03:47:07;;;;;;;5.18;3.45;;;;;;;;;;5085750;28;20552;-52
2021/07/02 03:49:33;;;;;;;6.10;3.70;;;;;;;;;;5079976;28;20056;-53
2021/07/02 03:51:58;;;;;;;3.83;2.95;;;;;;;;;;5084832;28;20043;-53
2021/07/02 03:54:23;;;;;;;4.13;2.80;;;;;;;;;;5076678;28;20099;-54
2021/07/02 03:59:32;;;;;;;5.15;3.08;;;;;;;;;;5089659;28;20081;-53
2021/07/02 04:01:57;;;;;;;3.20;2.63;;;;;;;;;;5077494;28;20056;-48
2021/07/02 04:04:23;;;;;;;5.22;2.38;;;;;;;;;;5083813;28;20012;-50
2021/07/02 04:06:48;;;;;;;3.28;2.50;;;;;;;;;;5079481;28;20032;-53
2021/07/02 04:09:13;;;;;;;3.88;2.65;;;;;;;;;;5090072;28;20012;-52
2021/07/02 04:11:38;;;;;;;3.63;2.67;;;;;;;;;;5086621;28;20026;-54
2021/07/02 04:14:04;;;;;;;2.15;1.80;;;;;;;;;;5092177;28;20220;-49
2021/07/02 04:16:30;;;;;;;2.70;1.98;;;;;;;;;;5094858;28;20030;-52
2021/07/02 04:18:55;;;;;;;2.83;1.90;;;;;;;;;;5092054;28;20016;-52
2021/07/02 04:21:20;;;;;;;2.45;1.90;;;;;;;;;;5082984;28;20383;-52
2021/07/02 04:23:45;;;;;;;3.03;2.05;;;;;;;;;;5082942;28;20421;-51
2021/07/02 04:26:11;;;;;;;1.52;1.15;;;;;;;;;;5074242;28;20535;-53
2021/07/02 04:28:36;;;;;;;1.75;1.30;;;;;;;;;;5074773;28;20025;-53
2021/07/02 04:31:01;;;;;;;2.63;1.13;;;;;;;;;;5078668;28;20562;-51
2021/07/02 04:33:26;;;;;;;1.67;1.30;;;;;;;;;;5086588;28;20044;-52
2021/07/02 04:35:51;;;;;;;1.90;1.52;;;;;;;;;;5090546;28;20063;-53
2021/07/02 04:38:17;;;;;;;2.25;1.23;;;;;;;;;;5094671;28;20096;-53
2021/07/02 04:40:42;;;;;;;1.60;1.20;;;;;;;;;;5079008;28;20024;-52
2021/07/02 04:43:07;;;;;;;2.40;1.60;;;;;;;;;;5086155;28;20032;-54
2021/07/02 04:45:32;;;;;;;2.05;1.08;;;;;;;;;;5078386;28;20024;-53
2021/07/02 04:47:58;;;;;;;2.58;1.45;;;;;;;;;;5076490;28;20103;-52
2021/07/02 04:50:23;;;;;;;1.73;1.30;;;;;;;;;;5084318;28;20062;-53
2021/07/02 04:52:48;;;;;;;2.88;1.38;;;;;;;;;;5074741;28;20056;-53
2021/07/02 04:55:14;;;;;;;1.85;1.30;;;;;;;;;;5075876;28;20459;-51
2021/07/02 04:57:39;;;;;;;1.60;1.25;;;;;;;;;;5089099;28;20073;-51
2021/07/02 05:00:05;;;;;;;1.83;1.30;;;;;;;;;;5089006;28;20040;-52
2021/07/02 05:02:30;;;;;;;2.00;1.50;;;;;;;;;;5081983;28;20037;-52
2021/07/02 05:04:55;;;;;;;1.90;1.38;;;;;;;;;;5074677;28;20027;-50
2021/07/02 05:07:21;;;;;;;2.40;1.45;;;;;;;;;;5077827;28;20043;-49
2021/07/02 05:09:46;;;;;;;2.58;1.38;;;;;;;;;;5074351;28;20047;-50
2021/07/02 05:12:11;;;;;;;2.92;2.33;;;;;;;;;;5083828;28;20024;-52
2021/07/02 05:14:36;;;;;;;3.05;2.50;;;;;;;;;;5076212;28;20045;-54
2021/07/02 05:17:04;;;;;;;2.83;2.30;;;;;;;;;;5082161;28;20027;-50
2021/07/02 05:19:29;;;;;;;2.53;2.33;;;;;;;;;;5085050;28;20095;-51
2021/07/02 05:21:55;;;;;;;4.75;2.50;;;;;;;;;;5078429;28;20550;-51
2021/07/02 05:24:20;;;;;;;4.25;2.78;;;;;;;;;;5086523;28;20600;-55
2021/07/02 05:26:45;;;;;;;3.97;2.70;;;;;;;;;;5082617;28;20038;-53
2021/07/02 05:29:10;;;;;;;3.33;2.53;;;;;;;;;;5079654;28;20119;-51
2021/07/02 05:31:36;;;;;;;4.18;2.60;;;;;;;;;;5082604;28;20019;-52
2021/07/02 05:34:01;;;;;;;3.33;2.85;;;;;;;;;;5088900;28;20012;-53
2021/07/02 05:36:26;;;;;;;4.75;3.28;;;;;;;;;;5089149;28;20027;-52
2021/07/02 05:38:51;;;;;;;3.95;2.92;;;;;;;;;;5087165;28;20054;-51
2021/07/02 05:41:17;;;;;;;3.30;2.75;;;;;;;;;;5079139;28;20081;-53
2021/07/02 05:43:42;;;;;;;4.10;3.13;;;;;;;;;;5083096;28;20078;-53
2021/07/02 05:46:07;;;;;;;4.30;3.17;;;;;;;;;;5075240;28;20081;-52
2021/07/02 05:48:33;;;;;;;4.63;3.47;;;;;;;;;;5089867;28;20349;-53
2021/07/02 05:50:58;;;;;;;5.30;3.47;;;;;;;;;;5077019;28;20024;-50
2021/07/02 05:53:23;;;;;;;5.40;3.42;;;;;;;;;;5081757;28;20556;-52
2021/07/02 05:55:49;;;;;;;5.75;3.58;;;;;;;;;;5091060;28;20091;-51
2021/07/02 05:58:14;;;;;;;3.50;3.20;;;;;;;;;;5087197;28;20097;-52
2021/07/02 06:00:40;;;;;;;6.03;4.13;;;;;;;;;;5078364;28;20016;-53
2021/07/02 06:03:05;;;;;;;3.85;3.22;;;;;;;;;;5089118;28;20128;-51
2021/07/02 06:05:31;;;;;;;5.97;3.88;;;;;;;;;;5089562;28;20073;-53
2021/07/02 06:07:56;;;;;;;5.38;3.45;;;;;;;;;;5085528;28;20024;-53
2021/07/02 06:10:23;;;;;;;4.97;3.78;;;;;;;;;;5078775;28;20472;-54
2021/07/02 06:12:48;;;;;;;5.22;3.33;;;;;;;;;;5086797;28;20503;-51
2021/07/02 06:15:14;;;;;;;4.68;3.90;;;;;;;;;;5092161;28;20024;-48
2021/07/02 06:17:40;;;;;;;3.88;3.35;;;;;;;;;;5079823;28;20020;-50
2021/07/02 06:20:06;;;;;;;4.10;3.38;;;;;;;;;;5091741;28;20039;-52
2021/07/02 06:22:31;;;;;;;4.85;3.97;;;;;;;;;;5078167;28;20111;-53
2021/07/02 06:24:57;;;;;;;4.93;3.40;;;;;;;;;;5091122;28;20028;-54
2021/07/02 06:27:22;;;;;;;3.95;2.97;;;;;;;;;;5075697;28;20029;-50
2021/07/02 06:29:47;;;;;;;3.70;3.03;;;;;;;;;;5077566;28;20056;-49
2021/07/02 06:32:13;;;;;;;4.38;2.15;;;;;;;;;;5074293;28;20031;-52
2021/07/02 06:34:38;;;;;;;4.38;2.50;;;;;;;;;;5082659;28;20082;-53
2021/07/02 06:37:03;;;;;;;3.45;2.78;;;;;;;;;;5089713;28;20046;-53
2021/07/02 06:39:28;;;;;;;3.97;2.78;;;;;;;;;;5083978;28;20020;-51
2021/07/02 06:41:54;;;;;;;3.80;2.28;;;;;;;;;;5071078;28;20032;-54
2021/07/02 06:44:19;;;;;;;2.75;2.00;;;;;;;;;;5086879;28;20069;-54
2021/07/02 06:46:44;;;;;;;2.30;2.00;;;;;;;;;;5071485;28;20050;-52
2021/07/02 06:49:09;;;;;;;2.28;1.90;;;;;;;;;;5081272;28;20023;-50
2021/07/02 06:51:35;;;;;;;1.45;1.30;;;;;;;;;;5084397;28;20024;-54
2021/07/02 06:54:03;;;;;;;1.98;1.70;;;;;;;;;;5085657;28;20386;-51
2021/07/02 06:56:28;;;;;;;2.88;1.50;;;;;;;;;;5085089;28;20097;-53
2021/07/02 06:58:54;;;;;;;2.60;1.15;;;;;;;;;;5089475;28;20051;-53
2021/07/02 07:01:19;;;;;;;2.42;1.27;;;;;;;;;;5073737;28;20079;-50
2021/07/02 07:03:44;;;;;;;1.50;1.10;;;;;;;;;;5072134;28;20044;-49
2021/07/02 07:06:09;;;;;;;3.05;1.58;;;;;;;;;;5071999;28;20029;-52
2021/07/02 07:08:35;;;;;;;2.78;1.45;;;;;;;;;;5073694;28;20059;-54
2021/07/02 07:11:01;;;;;;;3.40;1.77;;;;;;;;;;5086887;28;20016;-52
2021/07/02 07:13:26;;;;;;;3.15;1.80;;;;;;;;;;5072231;28;20126;-51
2021/07/02 07:15:51;;;;;;;3.20;2.08;;;;;;;;;;5092520;28;20045;-51
2021/07/02 07:18:17;;;;;;;5.50;2.38;;;;;;;;;;5089091;28;20027;-48
2021/07/02 07:20:42;;;;;;;4.18;2.17;;;;;;;;;;5081690;28;20713;-51
2021/07/02 07:23:07;;;;;;;5.90;2.35;;;;;;;;;;5082729;28;20229;-51
2021/07/02 07:25:33;;;;;;;4.93;2.83;;;;;;;;;;5080000;28;20581;-52
2021/07/02 07:27:58;;;;;;;5.15;2.65;;;;;;;;;;5072229;28;20027;-53
2021/07/02 07:30:23;;;;;;;7.40;3.97;;;;;;;;;;5072076;28;20013;-53
2021/07/02 07:32:52;;;;;;;6.80;3.90;;;;;;;;;;5080305;28;20016;-53
2021/07/02 07:35:29;;;;;;;7.93;5.15;;;;;;;;;;5085659;28;20016;-52
2021/07/02 07:37:55;;;;;;;9.52;5.35;;;;;;;;;;5093872;28;20024;-52
2021/07/02 07:40:20;;;;;;;9.35;5.30;;;;;;;;;;5076212;28;20390;-51
2021/07/02 07:42:46;;;;;;;12.27;5.60;;;;;;;;;;5078127;28;20349;-52
2021/07/02 07:45:11;;;;;;;9.40;6.03;;;;;;;;;;5082786;28;20023;-49
2021/07/02 07:47:36;;;;;;;11.73;6.03;;;;;;;;;;5085730;28;20112;-54
2021/07/02 07:50:07;;;;;;;13.30;6.68;;;;;;;;;;5074733;28;20048;-50
2021/07/02 07:53:18;;;;;;;12.02;6.05;;;;;;;;;;5086603;28;20047;-52
2021/07/02 07:55:19;;;;;;;11.07;5.72;;;;;;;;;;5084404;28;20498;-50
2021/07/02 07:57:45;;;;;;;13.55;6.88;;;;;;;;;;5084741;28;20464;-54
2021/07/02 08:00:11;;;;;;;10.18;6.40;;;;;;;;;;5074722;28;20043;-50
2021/07/02 08:02:36;;;;;;;8.63;6.03;;;;;;;;;;5088354;28;20558;-54
2021/07/02 08:05:01;;;;;;;11.70;7.80;;;;;;;;;;5082992;28;20031;-50
2021/07/02 08:07:27;;;;;;;13.50;7.60;;;;;;;;;;5087517;28;20016;-54
2021/07/02 08:09:53;;;;;;;10.65;6.75;;;;;;;;;;5094011;28;20052;-52
2021/07/02 08:12:19;;;;;;;11.93;7.07;;;;;;;;;;5080649;28;20020;-50
2021/07/02 08:14:48;;;;;;;11.23;6.63;;;;;;;;;;5090218;28;20555;-51
2021/07/02 08:17:13;;;;;;;14.77;7.97;;;;;;;;;;5089173;28;20035;-52
2021/07/02 08:19:38;;;;;;;12.48;7.00;;;;;;;;;;5076422;28;20031;-48
2021/07/02 08:22:03;;;;;;;9.25;6.70;;;;;;;;;;5083033;28;20016;-54
2021/07/02 08:24:29;;;;;;;8.38;6.85;;;;;;;;;;5093788;28;20020;-50
2021/07/02 08:26:58;;;;;;;12.63;8.50;;;;;;;;;;5091881;28;20016;-49
2021/07/02 08:29:26;;;;;;;12.55;8.07;;;;;;;;;;5084190;28;20065;-49
2021/07/02 08:31:51;;;;;;;11.63;8.23;;;;;;;;;;5087115;28;20067;-49
2021/07/02 08:34:17;;;;;;;13.52;7.63;;;;;;;;;;5088018;28;20040;-53
2021/07/02 08:36:42;;;;;;;9.15;6.38;;;;;;;;;;5087889;28;20020;-52
2021/07/02 08:39:08;;;;;;;8.05;5.65;;;;;;;;;;5088993;28;20481;-48
2021/07/02 08:41:33;;;;;;;10.73;6.68;;;;;;;;;;5088977;28;20100;-54
2021/07/02 08:43:59;;;;;;;12.73;7.75;;;;;;;;;;5091736;28;20094;-49
2021/07/02 08:46:24;;;;;;;10.93;7.03;;;;;;;;;;5093845;28;20024;-51
2021/07/02 08:48:50;;;;;;;7.28;6.00;;;;;;;;;;5088412;28;20017;-52
2021/07/02 08:51:15;;;;;;;10.55;6.30;;;;;;;;;;5084109;28;20066;-47
2021/07/02 08:53:41;;;;;;;7.25;6.20;;;;;;;;;;5090453;28;20087;-48
2021/07/02 08:56:07;;;;;;;8.48;6.22;;;;;;;;;;5089720;28;20016;-51
2021/07/02 08:58:33;;;;;;;8.40;6.05;;;;;;;;;;5081018;28;20024;-53
2021/07/02 09:00:58;;;;;;;9.25;6.63;;;;;;;;;;5086327;28;20032;-47
2021/07/02 09:03:24;;;;;;;8.23;6.68;;;;;;;;;;5076829;28;20048;-48
2021/07/02 09:05:49;;;;;;;7.93;5.88;;;;;;;;;;5080081;28;20475;-52
2021/07/02 09:08:15;;;;;;;8.88;7.13;;;;;;;;;;5086431;28;20012;-52
2021/07/02 09:10:40;;;;;;;9.98;7.00;;;;;;;;;;5082099;28;20027;-54
2021/07/02 09:13:06;;;;;;;7.57;6.03;;;;;;;;;;5085607;28;20383;-51
2021/07/02 09:15:31;;;;;;;9.20;6.90;;;;;;;;;;5090282;28;20028;-53
2021/07/02 09:18:01;;;;;;;11.38;8.20;;;;;;;;;;5083507;28;20056;-51
2021/07/02 09:20:28;;;;;;;9.00;7.82;;;;;;;;;;5071598;28;20383;-49
2021/07/02 09:23:03;;;;;;;10.40;8.07;;;;;;;;;;5091003;28;20098;-52
2021/07/02 09:25:29;;;;;;;;;;;;;;;;;;5092453;28;20024;-52
2021/07/02 09:27:55;;;;;;;12.83;10.10;;;;;;;;;;5092918;28;19915;-49
2021/07/02 09:30:22;;;;;;;14.82;10.02;;;;;;;;;;5091052;28;20270;-54
2021/07/02 09:32:52;;;;;;;11.38;10.18;;;;;;;;;;5072256;28;20096;-53
2021/07/02 09:35:18;;;;;;;14.30;11.00;;;;;;;;;;5078963;28;20429;-49
2021/07/02 09:37:51;;;;;;;19.23;13.45;;;;;;;;;;5087372;28;20028;-51
2021/07/02 09:40:24;;;;;;;18.98;14.43;;;;;;;;;;5092362;28;20416;-50
2021/07/02 09:43:08;;;;;;;19.17;14.00;;;;;;;;;;5084703;28;20032;-52
2021/07/02 09:45:34;;;;;;;17.80;13.52;;;;;;;;;;5085525;28;20048;-53
2021/07/02 09:48:07;;;;;;;21.23;16.17;;;;;;;;;;5085393;28;20012;-53
2021/07/02 09:50:32;;;;;;;20.05;16.00;;;;;;;;;;5079369;28;20020;-53
2021/07/02 09:52:57;;;;;;;21.35;17.48;;;;;;;;;;5078054;28;20107;-53
2021/07/02 09:55:24;;;;;;;21.15;15.90;;;;;;;;;;5075052;28;20115;-53
2021/07/02 09:57:53;;;;;;;19.42;16.15;;;;;;;;;;5074679;28;20064;-50
2021/07/02 10:00:19;;;;;;;18.90;15.38;;;;;;;;;;5078713;28;20059;-52
2021/07/02 10:02:51;;;;;;;20.85;15.50;;;;;;;;;;5090178;28;20095;-52
2021/07/02 10:05:16;;;;;;;21.05;15.77;;;;;;;;;;5087253;28;20053;-54
2021/07/02 10:07:54;;;;;;;20.05;16.52;;;;;;;;;;5084655;28;20401;-51
2021/07/02 10:10:19;;;;;;;22.10;16.65;;;;;;;;;;5073497;28;20020;-52
2021/07/02 10:12:44;;;;;;;23.13;18.30;;;;;;;;;;5086776;28;20478;-52
2021/07/02 10:15:09;;;;;;;20.25;15.57;;;;;;;;;;5088479;28;20027;-52
2021/07/02 10:17:35;;;;;;;20.92;15.48;;;;;;;;;;5079081;28;20451;-53
2021/07/02 10:20:00;;;;;;;17.80;15.57;;;;;;;;;;5083366;28;20039;-53
2021/07/02 10:22:25;;;;;;;18.17;14.63;;;;;;;;;;5077325;28;20019;-51
2021/07/02 10:24:51;;;;;;;18.50;15.63;;;;;;;;;;5087646;28;20024;-50
2021/07/02 10:27:16;;;;;;;17.67;14.80;;;;;;;;;;5071617;28;20017;-55
2021/07/02 10:29:43;;;;;;;18.10;16.02;;;;;;;;;;5085980;28;20012;-51
2021/07/02 10:32:10;;;;;;;20.60;16.45;;;;;;;;;;5072854;28;20475;-53
2021/07/02 10:34:36;;;;;;;19.58;15.68;;;;;;;;;;5079361;28;20023;-52
2021/07/02 10:37:02;;;;;;;17.08;15.38;;;;;;;;;;5080650;28;20087;-52
2021/07/02 10:39:29;;;;;;;17.25;15.40;;;;;;;;;;5081453;28;20127;-51
2021/07/02 10:42:13;;;;;;;17.75;15.38;;;;;;;;;;5078157;28;20019;-53
2021/07/02 10:45:08;;;;;;;19.58;17.30;;;;;;;;;;5081878;28;20544;-52
2021/07/02 10:47:46;;;;;;;18.73;16.80;;;;;;;;;;5072383;28;20101;-52
2021/07/02 10:50:31;;;;;;;17.48;14.48;;;;;;;;;;5078527;28;20078;-52
2021/07/02 10:53:23;;;;;;;17.45;15.60;;;;;;;;;;5077033;28;20130;-54
2021/07/02 10:55:48;;;;;;;18.88;15.55;;;;;;;;;;5083688;28;20036;-50
2021/07/02 10:58:13;;;;;;;17.67;15.80;;;;;;;;;;5088337;28;20034;-50
2021/07/02 11:01:05;;;;;;;17.90;16.03;;;;;;;;;;5074986;28;20032;-52
2021/07/02 11:03:30;;;;;;;19.05;16.65;;;;;;;;;;5085254;28;20661;-53
2021/07/02 11:05:55;;;;;;;16.88;15.20;;;;;;;;;;5095370;28;20028;-53
2021/07/02 11:08:39;;;;;;;16.70;15.00;;;;;;;;;;5089105;28;20024;-53
2021/07/02 11:11:04;;;;;;;17.63;15.82;;;;;;;;;;5078894;28;20383;-51
2021/07/02 11:13:29;;;;;;;15.15;13.13;;;;;;;;;;5087768;28;20027;-50
2021/07/02 11:16:05;;;;;;;13.73;12.05;;;;;;;;;;5089081;28;20020;-50
2021/07/02 11:18:38;;;;;;;14.05;12.57;;;;;;;;;;5093092;28;20146;-50
2021/07/02 11:21:11;;;;;;;14.55;12.25;;;;;;;;;;5086797;28;20035;-53
2021/07/02 11:23:40;;;;;;;14.57;13.13;;;;;;;;;;5089003;28;20016;-50
2021/07/02 11:26:07;;;;;;;15.52;13.88;;;;;;;;;;5088028;28;20392;-53
2021/07/02 11:28:41;;;;;;;15.70;12.70;;;;;;;;;;5092832;28;20020;-50
2021/07/02 11:31:08;;;;;;;13.38;12.18;;;;;;;;;;5089789;28;20031;-50
2021/07/02 11:33:34;;;;;;;15.65;12.75;;;;;;;;;;5094088;28;20498;-53
2021/07/02 11:35:59;;;;;;;14.30;12.80;;;;;;;;;;5085359;28;20036;-51
2021/07/02 11:38:25;;;;;;;12.63;11.03;;;;;;;;;;5090800;28;20056;-52
2021/07/02 11:40:51;;;;;;;12.95;11.45;;;;;;;;;;5086732;28;20295;-50
2021/07/02 11:43:20;;;;;;;12.95;11.50;;;;;;;;;;5095176;28;20028;-51
2021/07/02 11:45:51;;;;;;;11.05;9.98;;;;;;;;;;5091350;28;20070;-52
2021/07/02 11:48:19;;;;;;;11.38;10.27;;;;;;;;;;5090809;28;20062;-54
2021/07/02 11:50:46;;;;;;;12.40;11.10;;;;;;;;;;5085908;28;20350;-53
2021/07/02 11:53:29;;;;;;;11.10;10.10;;;;;;;;;;5085772;28;20021;-50
2021/07/02 11:56:04;;;;;;;11.77;10.68;;;;;;;;;;5080902;28;20035;-52
2021/07/02 11:58:30;;;;;;;11.93;10.82;;;;;;;;;;5082793;28;20016;-53
2021/07/02 12:00:56;;;;;;;11.48;10.32;;;;;;;;;;5075181;28;20365;-53
2021/07/02 12:03:21;;;;;;;13.80;12.52;;;;;;;;;;5080772;28;20208;-54
2021/07/02 12:05:56;;;;;;;12.55;10.38;;;;;;;;;;5092775;28;20020;-54
2021/07/02 12:08:23;;;;;;;11.35;10.15;;;;;;;;;;5093058;28;20082;-52
2021/07/02 12:11:04;;;;;;;10.60;9.35;;;;;;;;;;5080033;28;20433;-54
2021/07/02 12:13:33;;;;;;;11.00;9.90;;;;;;;;;;5080470;28;20026;-53
2021/07/02 12:16:00;;;;;;;10.85;9.85;;;;;;;;;;5092150;28;20042;-54
2021/07/02 12:18:25;;;;;;;10.85;9.82;;;;;;;;;;5093022;28;20071;-52
2021/07/02 12:20:57;;;;;;;11.23;10.13;;;;;;;;;;5086885;28;20040;-51
2021/07/02 12:23:27;;;;;;;10.45;9.45;;;;;;;;;;5104000;28;20031;-55
2021/07/02 12:26:09;;;;;;;10.32;8.50;;;;;;;;;;5082378;28;20103;-51
2021/07/02 12:29:00;;;;;;;8.07;7.10;;;;;;;;;;5092189;28;20213;-49
2021/07/02 12:31:26;;;;;;;8.25;7.40;;;;;;;;;;5087732;28;20020;-54
2021/07/02 12:33:53;;;;;;;7.47;6.47;;;;;;;;;;5086260;28;20391;-52
2021/07/02 12:36:18;;;;;;;8.15;7.40;;;;;;;;;;5082865;28;20016;-50
2021/07/02 12:38:59;;;;;;;8.17;6.77;;;;;;;;;;5090416;28;20016;-52
2021/07/02 12:41:36;;;;;;;7.63;6.63;;;;;;;;;;5084235;28;20342;-54
2021/07/02 12:44:01;;;;;;;8.38;7.57;;;;;;;;;;5083517;28;20016;-53
2021/07/02 12:46:26;;;;;;;8.70;7.90;;;;;;;;;;5083492;28;20431;-53
2021/07/02 12:49:12;;;;;;;8.32;7.53;;;;;;;;;;5091994;28;20012;-53
2021/07/02 12:51:37;;;;;;;9.25;8.35;;;;;;;;;;5090023;28;20035;-52
2021/07/02 12:54:47;;;;;;;9.95;8.95;;;;;;;;;;5086262;28;20020;-55
2021/07/02 12:56:48;;;;;;;9.52;8.55;;;;;;;;;;5072932;28;20059;-53
2021/07/02 12:59:13;;;;;;;9.93;8.98;;;;;;;;;;5092094;28;20440;-51
2021/07/02 13:01:45;;;;;;;9.02;7.07;;;;;;;;;;5073581;28;20028;-54
2021/07/02 13:04:10;;;;;;;9.32;8.05;;;;;;;;;;5088685;28;20069;-52
2021/07/02 13:06:36;;;;;;;8.27;7.57;;;;;;;;;;5093263;28;20421;-49
2021/07/02 13:09:01;;;;;;;9.10;8.15;;;;;;;;;;5083850;28;20021;-49
2021/07/02 13:11:26;;;;;;;5.33;4.83;;;;;;;;;;5090719;28;20019;-52
2021/07/02 13:13:52;;;;;;;7.27;6.60;;;;;;;;;;5091785;28;20277;-54
2021/07/02 13:16:17;;;;;;;8.05;7.30;;;;;;;;;;5093333;28;20263;-53
2021/07/02 13:18:53;;;;;;;7.30;6.60;;;;;;;;;;5091852;28;20103;-53
2021/07/02 13:21:27;;;;;;;6.90;6.20;;;;;;;;;;5074018;28;20332;-51
2021/07/02 13:23:56;;;;;;;6.72;6.10;;;;;;;;;;5089184;28;20455;-54
2021/07/02 13:26:26;;;;;;;7.43;5.97;;;;;;;;;;5080176;28;20119;-53
2021/07/02 13:29:11;;;;;;;5.68;5.28;;;;;;;;;;5089671;28;20124;-50
2021/07/02 13:31:36;;;;;;;;;;;;;;;;;;5084251;28;20024;-54
2021/07/02 13:34:03;;;;;;;7.23;6.53;;;;;;;;;;5091633;28;19916;-52
2021/07/02 13:36:34;;;;;;;6.47;5.88;;;;;;;;;;5088503;28;20271;-53
2021/07/02 13:39:10;;;;;;;6.65;6.05;;;;;;;;;;5088945;28;20016;-55
2021/07/02 13:41:36;;;;;;;5.82;5.28;;;;;;;;;;5076532;28;20483;-48
2021/07/02 13:44:01;;;;;;;7.88;7.18;;;;;;;;;;5089491;28;20062;-54
2021/07/02 13:46:31;;;;;;;6.68;6.07;;;;;;;;;;5091349;28;20103;-55
2021/07/02 13:48:56;;;;;;;7.55;6.78;;;;;;;;;;5073637;28;20044;-52
2021/07/02 13:51:22;;;;;;;6.20;5.60;;;;;;;;;;5082706;28;20383;-53
2021/07/02 13:53:47;;;;;;;6.38;5.78;;;;;;;;;;5085549;28;20050;-53
2021/07/02 13:56:12;;;;;;;6.32;5.82;;;;;;;;;;5076928;28;20020;-55
2021/07/02 13:58:37;;;;;;;7.07;6.47;;;;;;;;;;5072351;28;20028;-52
2021/07/02 14:01:02;;;;;;;7.47;6.77;;;;;;;;;;5074273;28;20278;-51
2021/07/02 14:03:28;;;;;;;7.95;7.15;;;;;;;;;;5072087;28;20295;-54
2021/07/02 14:05:53;;;;;;;8.63;7.83;;;;;;;;;;5075181;28;20483;-53
2021/07/02 14:08:18;;;;;;;7.78;6.97;;;;;;;;;;5079033;28;20760;-53
2021/07/02 14:10:43;;;;;;;9.90;9.00;;;;;;;;;;5083846;28;20212;-55
2021/07/02 14:13:09;;;;;;;8.83;8.03;;;;;;;;;;5084384;28;20486;-51
2021/07/02 14:15:34;;;;;;;8.35;7.43;;;;;;;;;;5072450;28;20313;-52
2021/07/02 14:17:59;;;;;;;8.38;7.57;;;;;;;;;;5077228;28;20016;-49
2021/07/02 14:20:24;;;;;;;9.15;8.35;;;;;;;;;;5088599;28;20431;-53
2021/07/02 14:22:50;;;;;;;8.48;7.78;;;;;;;;;;5075381;28;20028;-52
2021/07/02 14:25:16;;;;;;;8.43;7.55;;;;;;;;;;5090029;28;20032;-52
2021/07/02 14:27:42;;;;;;;6.50;5.93;;;;;;;;;;5092272;28;20035;-54
2021/07/02 14:30:07;;;;;;;8.68;7.50;;;;;;;;;;5090706;28;20016;-54
2021/07/02 14:32:33;;;;;;;8.13;7.32;;;;;;;;;;5086278;28;20027;-53
2021/07/02 14:34:58;;;;;;;8.50;7.10;;;;;;;;;;5092469;28;20047;-54
2021/07/02 14:37:24;;;;;;;7.88;7.07;;;;;;;;;;5092381;28;20020;-54
2021/07/02 14:39:49;;;;;;;8.90;8.10;;;;;;;;;;5084059;28;20024;-54